Time;durP1;ratioP1;P1;durP2;ratioP2;P2;SDS_P1;SDS_P2;PMS_P1;PMS_P2;Temp;Humidity;BMP_temperature;BMP_pressure;BME280_temperature;BME280_humidity;BME280_pressure;Samples;Min_cycle;Max_cycle;Signal;HPM_P1;HPM_P2
2023/03/14 00:01:21;;;;;;;1.75;0.70;;;12.00;84.70;;;;;;5128972;27;20227;-71
2023/03/14 00:03:51;;;;;;;2.42;0.80;;;12.10;84.70;;;;;;5134280;27;20271;-75
2023/03/14 00:06:19;;;;;;;1.80;0.90;;;12.10;84.60;;;;;;5135390;27;20192;-70
2023/03/14 00:08:53;;;;;;;2.05;0.90;;;12.10;84.40;;;;;;5134150;27;20194;-70
2023/03/14 00:11:22;;;;;;;1.60;0.68;;;12.00;84.40;;;;;;5134059;27;20179;-70
2023/03/14 00:13:50;;;;;;;3.08;0.80;;;12.00;84.40;;;;;;5134729;27;20192;-71
2023/03/14 00:16:18;;;;;;;1.90;0.80;;;12.00;84.50;;;;;;5134081;27;20176;-71
2023/03/14 00:18:45;;;;;;;1.90;0.80;;;12.00;84.50;;;;;;5135086;27;20302;-71
2023/03/14 00:21:14;;;;;;;1.73;0.70;;;12.10;84.90;;;;;;5134157;27;20638;-73
2023/03/14 00:23:43;;;;;;;1.60;0.65;;;12.10;84.80;;;;;;5133407;27;20183;-71
2023/03/14 00:26:12;;;;;;;1.83;0.88;;;12.10;84.50;;;;;;5134430;27;20220;-71
2023/03/14 00:28:40;;;;;;;2.15;0.80;;;12.10;84.30;;;;;;5133983;27;20183;-70
2023/03/14 00:31:15;;;;;;;1.60;0.60;;;12.10;83.90;;;;;;5134580;27;20242;-71
2023/03/14 00:33:42;;;;;;;1.63;0.70;;;12.10;83.80;;;;;;5134072;27;20195;-71
2023/03/14 00:36:13;;;;;;;2.70;0.70;;;12.10;83.60;;;;;;5134500;27;20191;-72
2023/03/14 00:38:47;;;;;;;2.22;0.80;;;12.10;83.50;;;;;;5134343;27;20208;-71
2023/03/14 00:41:16;;;;;;;1.70;0.68;;;12.10;83.60;;;;;;5134392;27;20183;-71
2023/03/14 00:43:43;;;;;;;1.60;0.70;;;12.10;84.30;;;;;;5133861;27;20195;-73
2023/03/14 00:46:11;;;;;;;1.70;0.70;;;12.10;83.30;;;;;;5134407;27;20191;-75
2023/03/14 00:48:38;;;;;;;2.22;0.90;;;12.10;83.20;;;;;;5132752;27;20188;-70
2023/03/14 00:51:07;;;;;;;1.90;0.80;;;12.10;83.30;;;;;;5134546;27;20591;-70
2023/03/14 00:53:39;;;;;;;1.90;0.70;;;12.10;83.50;;;;;;5131973;27;20195;-70
2023/03/14 00:56:08;;;;;;;1.85;0.90;;;12.20;83.60;;;;;;5133250;27;20183;-70
2023/03/14 00:58:36;;;;;;;1.60;0.70;;;12.20;83.70;;;;;;5134350;27;20219;-71
2023/03/14 01:01:07;;;;;;;2.28;0.80;;;12.20;83.90;;;;;;5132173;27;20203;-71
2023/03/14 01:03:35;;;;;;;1.70;0.90;;;12.10;84.50;;;;;;5133840;27;20191;-70
2023/03/14 01:06:11;;;;;;;1.90;0.65;;;12.10;85.80;;;;;;5133265;27;20515;-75
2023/03/14 01:08:40;;;;;;;1.80;0.80;;;12.10;86.90;;;;;;5133950;27;20191;-70
2023/03/14 01:11:09;;;;;;;1.75;0.85;;;12.10;87.60;;;;;;5133223;27;20215;-70
2023/03/14 01:13:42;;;;;;;2.00;0.90;;;12.00;88.70;;;;;;5133227;27;20699;-71
2023/03/14 01:16:12;;;;;;;2.45;0.90;;;12.10;89.90;;;;;;5133906;27;20188;-70
2023/03/14 01:18:41;;;;;;;1.80;0.80;;;12.10;90.20;;;;;;5132787;27;20222;-71
2023/03/14 01:21:13;;;;;;;2.28;0.98;;;12.10;90.50;;;;;;5133921;27;20191;-70
2023/03/14 01:23:42;;;;;;;3.15;1.40;;;12.00;91.10;;;;;;5132403;27;20240;-71
2023/03/14 01:26:12;;;;;;;2.40;0.90;;;11.90;91.80;;;;;;5134008;27;20191;-70
2023/03/14 01:28:39;;;;;;;2.30;1.02;;;11.90;92.10;;;;;;5132235;27;20191;-70
2023/03/14 01:31:08;;;;;;;2.80;1.00;;;11.80;92.40;;;;;;5131741;27;20639;-70
2023/03/14 01:33:36;;;;;;;3.00;1.02;;;11.80;92.80;;;;;;5133516;27;20669;-70
2023/03/14 01:36:03;;;;;;;3.55;1.30;;;11.80;92.70;;;;;;5132630;27;20242;-70
2023/03/14 01:38:30;;;;;;;3.95;1.60;;;11.70;93.00;;;;;;5133577;27;20298;-70
2023/03/14 01:40:59;;;;;;;2.40;1.15;;;11.70;93.30;;;;;;5132112;27;20275;-70
2023/03/14 01:43:27;;;;;;;3.15;1.00;;;11.70;93.70;;;;;;5131918;27;20183;-70
2023/03/14 01:46:34;;;;;;;2.25;1.38;;;11.70;94.10;;;;;;5133207;27;20191;-70
2023/03/14 01:49:06;;;;;;;2.13;1.23;;;11.60;94.60;;;;;;5132023;27;20227;-70
2023/03/14 01:51:41;;;;;;;1.80;0.80;;;11.60;94.90;;;;;;5133526;27;20195;-70
2023/03/14 01:54:15;;;;;;;1.77;0.80;;;11.60;95.10;;;;;;5132156;27;20187;-71
2023/03/14 01:56:49;;;;;;;1.75;0.80;;;11.50;95.40;;;;;;5133491;27;20665;-70
2023/03/14 01:59:16;;;;;;;3.63;0.93;;;11.50;95.40;;;;;;5132299;27;20215;-70
2023/03/14 02:01:51;;;;;;;2.00;0.80;;;11.50;95.50;;;;;;5133169;27;20268;-71
2023/03/14 02:04:20;;;;;;;3.15;0.90;;;11.50;95.80;;;;;;5131778;27;20270;-70
2023/03/14 02:06:55;;;;;;;2.97;0.90;;;11.50;95.90;;;;;;5133501;27;20641;-69
2023/03/14 02:09:23;;;;;;;2.35;0.80;;;11.60;95.80;;;;;;5132311;27;20183;-70
2023/03/14 02:11:57;;;;;;;1.80;0.75;;;11.60;95.60;;;;;;5132220;27;20215;-71
2023/03/14 02:14:31;;;;;;;2.47;0.70;;;11.60;95.10;;;;;;5132803;27;20203;-70
2023/03/14 02:16:59;;;;;;;2.13;0.60;;;11.60;94.30;;;;;;5132155;27;20537;-70
2023/03/14 02:19:36;;;;;;;1.50;0.50;;;11.50;94.20;;;;;;5133281;27;20254;-70
2023/03/14 02:22:09;;;;;;;1.70;0.70;;;11.50;94.10;;;;;;5132037;27;20175;-70
2023/03/14 02:24:43;;;;;;;1.70;0.80;;;11.50;94.00;;;;;;5132571;28;20654;-70
2023/03/14 02:27:15;;;;;;;2.28;0.70;;;11.50;94.00;;;;;;5131949;28;20180;-70
2023/03/14 02:29:52;;;;;;;1.60;0.63;;;11.50;93.80;;;;;;5133282;28;20199;-71
2023/03/14 02:32:20;;;;;;;2.50;0.70;;;11.40;93.50;;;;;;5130882;28;20187;-70
2023/03/14 02:34:53;;;;;;;2.80;0.75;;;11.40;93.10;;;;;;5132614;28;20183;-70
2023/03/14 02:37:22;;;;;;;1.60;0.60;;;11.20;93.00;;;;;;5132520;28;20240;-70
2023/03/14 02:39:50;;;;;;;1.70;0.68;;;11.10;92.40;;;;;;5132934;28;20296;-70
2023/03/14 02:42:19;;;;;;;1.98;0.70;;;10.90;92.70;;;;;;5132163;28;20187;-78
2023/03/14 02:44:55;;;;;;;3.38;1.58;;;10.70;91.50;;;;;;5132911;28;20526;-70
2023/03/14 02:47:28;;;;;;;1.50;0.70;;;10.70;91.60;;;;;;5132347;28;20183;-70
2023/03/14 02:50:02;;;;;;;1.60;0.60;;;10.50;91.50;;;;;;5133251;27;20176;-70
2023/03/14 02:52:29;;;;;;;1.60;0.70;;;10.50;91.70;;;;;;5135819;27;20289;-70
2023/03/14 02:54:57;;;;;;;1.50;0.52;;;10.30;91.70;;;;;;5137045;27;20188;-69
2023/03/14 02:57:25;;;;;;;1.90;0.60;;;10.20;91.60;;;;;;5135594;27;20191;-70
2023/03/14 02:59:52;;;;;;;1.60;0.60;;;10.10;91.90;;;;;;5136709;27;20647;-70
2023/03/14 03:02:20;;;;;;;1.50;0.50;;;10.00;91.70;;;;;;5136391;27;20681;-69
2023/03/14 03:04:53;;;;;;;1.50;0.60;;;9.90;91.90;;;;;;5136841;27;20248;-70
2023/03/14 03:07:21;;;;;;;1.92;0.50;;;9.60;92.00;;;;;;5135807;27;20188;-69
2023/03/14 03:09:49;;;;;;;1.50;0.50;;;9.50;92.80;;;;;;5133497;27;20180;-70
2023/03/14 03:12:16;;;;;;;1.50;0.50;;;9.40;93.40;;;;;;5135349;27;20187;-70
2023/03/14 03:14:45;;;;;;;2.13;0.50;;;9.30;93.50;;;;;;5136067;27;20206;-71
2023/03/14 03:17:12;;;;;;;1.50;0.60;;;9.30;94.00;;;;;;5116491;28;20601;-70
2023/03/14 03:19:39;;;;;;;1.75;0.60;;;9.20;93.80;;;;;;5115726;28;20774;-73
2023/03/14 03:22:06;;;;;;;1.70;0.60;;;9.20;94.30;;;;;;5135359;27;20229;-73
2023/03/14 03:24:33;;;;;;;3.05;0.82;;;9.20;94.60;;;;;;5135580;27;20283;-80
2023/03/14 03:27:05;;;;;;;2.90;1.02;;;9.20;94.10;;;;;;5134721;27;20287;-69
2023/03/14 03:29:36;;;;;;;1.95;0.90;;;9.10;94.90;;;;;;5135749;27;20518;-81
2023/03/14 03:32:05;;;;;;;2.53;1.40;;;9.10;94.00;;;;;;5134692;27;20278;-70
2023/03/14 03:34:32;;;;;;;6.88;0.70;;;9.20;93.80;;;;;;5136191;27;20272;-69
2023/03/14 03:36:59;;;;;;;7.53;2.92;;;9.20;94.00;;;;;;5135696;27;20631;-70
2023/03/14 03:39:26;;;;;;;2.88;1.00;;;9.20;93.90;;;;;;5136069;27;20207;-69
2023/03/14 03:41:53;;;;;;;1.70;0.80;;;9.10;94.10;;;;;;5132693;27;20184;-69
2023/03/14 03:44:20;;;;;;;1.55;0.57;;;9.10;94.40;;;;;;5135677;27;20184;-70
2023/03/14 03:46:48;;;;;;;1.60;0.60;;;9.10;94.50;;;;;;5133624;27;20223;-69
2023/03/14 03:49:17;;;;;;;2.20;0.93;;;9.10;94.60;;;;;;5135917;27;20264;-70
2023/03/14 03:51:48;;;;;;;1.50;0.55;;;9.10;94.30;;;;;;5133328;27;20211;-71
2023/03/14 03:54:15;;;;;;;1.80;0.70;;;9.10;94.60;;;;;;5136372;27;20589;-69
2023/03/14 03:56:42;;;;;;;1.60;0.70;;;9.00;94.30;;;;;;5133718;27;20263;-70
2023/03/14 03:59:09;;;;;;;7.05;0.70;;;9.00;94.40;;;;;;5135695;27;20191;-70
2023/03/14 04:01:36;;;;;;;1.48;0.50;;;9.00;94.40;;;;;;5131243;27;20299;-70
2023/03/14 04:04:03;;;;;;;1.75;0.50;;;9.00;94.10;;;;;;5134934;27;20283;-70
2023/03/14 04:06:32;;;;;;;1.50;0.50;;;9.00;94.00;;;;;;5133540;27;20280;-69
2023/03/14 04:08:59;;;;;;;1.50;0.50;;;9.00;93.60;;;;;;5135434;27;20207;-70
2023/03/14 04:11:27;;;;;;;3.45;0.50;;;9.10;93.40;;;;;;5132056;27;20188;-70
2023/03/14 04:13:53;;;;;;;1.48;0.50;;;9.10;93.50;;;;;;5135883;27;20709;-71
2023/03/14 04:16:27;;;;;;;1.50;0.50;;;9.10;93.80;;;;;;5133790;27;20215;-70
2023/03/14 04:18:54;;;;;;;1.50;0.50;;;9.10;93.70;;;;;;5135556;27;20274;-70
2023/03/14 04:21:21;;;;;;;1.48;0.50;;;9.10;93.30;;;;;;5129765;27;20287;-70
2023/03/14 04:23:55;;;;;;;1.50;0.60;;;9.10;93.60;;;;;;5135229;27;20230;-70
2023/03/14 04:26:22;;;;;;;1.65;0.55;;;9.20;93.60;;;;;;5130943;27;20266;-70
2023/03/14 04:28:49;;;;;;;1.50;0.50;;;9.20;93.60;;;;;;5135097;27;20617;-70
2023/03/14 04:31:19;;;;;;;1.50;0.50;;;9.20;94.00;;;;;;5133305;27;20625;-69
2023/03/14 04:33:46;;;;;;;1.60;0.70;;;9.30;94.00;;;;;;5135302;27;20279;-70
2023/03/14 04:36:14;;;;;;;1.70;0.70;;;9.30;93.50;;;;;;5131825;27;20267;-69
2023/03/14 04:38:41;;;;;;;1.50;0.60;;;9.40;93.20;;;;;;5135552;27;20283;-70
2023/03/14 04:41:10;;;;;;;1.50;0.60;;;9.40;93.00;;;;;;5133233;27;20247;-71
2023/03/14 04:43:37;;;;;;;2.80;0.80;;;9.40;92.70;;;;;;5134760;27;20234;-72
2023/03/14 04:46:05;;;;;;;2.05;0.90;;;9.40;92.70;;;;;;5131935;27;20203;-70
2023/03/14 04:48:32;;;;;;;1.88;0.70;;;9.30;93.10;;;;;;5134921;27;20283;-70
2023/03/14 04:50:59;;;;;;;1.60;0.50;;;9.30;92.90;;;;;;5133054;27;20287;-70
2023/03/14 04:53:26;;;;;;;2.53;0.60;;;9.30;93.00;;;;;;5134776;27;20192;-70
2023/03/14 04:55:55;;;;;;;1.50;0.60;;;9.30;93.00;;;;;;5131438;27;21637;-74
2023/03/14 04:58:25;;;;;;;2.40;0.60;;;9.30;92.80;;;;;;5114193;28;20641;-70
2023/03/14 05:00:52;;;;;;;2.13;1.00;;;9.40;93.30;;;;;;5114572;27;20243;-82
2023/03/14 05:03:19;;;;;;;2.45;1.33;;;9.40;93.20;;;;;;5134901;27;20291;-70
2023/03/14 05:05:47;;;;;;;2.05;1.00;;;9.40;93.30;;;;;;5133249;27;20215;-70
2023/03/14 05:08:14;;;;;;;2.00;0.70;;;9.40;93.40;;;;;;5134908;27;20230;-70
2023/03/14 05:10:41;;;;;;;1.80;0.80;;;9.40;93.40;;;;;;5134011;27;20188;-73
2023/03/14 05:13:08;;;;;;;1.60;0.70;;;9.40;93.50;;;;;;5134273;27;20191;-70
2023/03/14 05:15:37;;;;;;;1.70;0.90;;;9.30;93.60;;;;;;5132341;27;20214;-70
2023/03/14 05:18:04;;;;;;;2.05;1.02;;;9.30;93.70;;;;;;5131234;27;20595;-69
2023/03/14 05:20:37;;;;;;;3.25;1.20;;;9.30;93.80;;;;;;5132322;27;20314;-73
2023/03/14 05:23:04;;;;;;;1.80;0.90;;;9.30;93.80;;;;;;5133227;27;20187;-69
2023/03/14 05:25:31;;;;;;;1.70;0.70;;;9.20;94.10;;;;;;5131895;27;20338;-79
2023/03/14 05:27:58;;;;;;;1.92;0.68;;;9.20;94.40;;;;;;5133563;27;20183;-70
2023/03/14 05:30:25;;;;;;;1.70;0.80;;;9.30;94.30;;;;;;5132910;27;20191;-78
2023/03/14 05:32:54;;;;;;;1.70;0.90;;;9.30;94.60;;;;;;5132856;27;20202;-70
2023/03/14 05:35:21;;;;;;;1.60;0.65;;;9.30;95.00;;;;;;5132953;27;20217;-74
2023/03/14 05:37:53;;;;;;;1.83;0.80;;;9.20;95.20;;;;;;5132570;27;20187;-70
2023/03/14 05:40:20;;;;;;;2.05;1.08;;;9.20;95.40;;;;;;5133708;27;20211;-70
2023/03/14 05:42:47;;;;;;;2.08;1.00;;;9.20;95.50;;;;;;5132332;27;20263;-74
2023/03/14 05:45:14;;;;;;;2.55;1.02;;;9.20;95.70;;;;;;5134022;27;20717;-71
2023/03/14 05:47:41;;;;;;;2.50;1.15;;;9.20;95.90;;;;;;5130472;27;20275;-70
2023/03/14 05:50:11;;;;;;;3.55;1.30;;;9.20;96.00;;;;;;5134294;27;20278;-70
2023/03/14 05:52:38;;;;;;;2.33;1.10;;;9.20;95.70;;;;;;5131398;27;20279;-70
2023/03/14 05:55:05;;;;;;;2.10;1.10;;;9.20;95.70;;;;;;5134178;27;20275;-69
2023/03/14 05:57:32;;;;;;;2.05;0.90;;;9.20;95.70;;;;;;5130455;27;20279;-70
2023/03/14 05:59:59;;;;;;;2.33;1.15;;;9.20;95.80;;;;;;5133312;27;20295;-70
2023/03/14 06:02:26;;;;;;;2.58;1.30;;;9.20;95.80;;;;;;5132430;27;20234;-70
2023/03/14 06:04:53;;;;;;;2.42;1.40;;;9.20;95.60;;;;;;5133457;27;20223;-70
2023/03/14 06:07:28;;;;;;;3.58;2.03;;;9.30;95.40;;;;;;5130541;27;20264;-70
2023/03/14 06:09:55;;;;;;;4.18;2.60;;;9.20;95.30;;;;;;5128800;27;20199;-69
2023/03/14 06:12:24;;;;;;;4.70;2.53;;;9.20;95.50;;;;;;5116825;27;20631;-70
2023/03/14 06:14:51;;;;;;;5.25;2.80;;;9.20;95.70;;;;;;5116703;27;20232;-71
2023/03/14 06:17:18;;;;;;;3.85;2.63;;;9.20;95.30;;;;;;5112327;28;20188;-70
2023/03/14 06:19:48;;;;;;;5.32;2.40;;;9.20;95.20;;;;;;5114820;27;20184;-70
2023/03/14 06:22:15;;;;;;;3.58;2.00;;;9.20;95.60;;;;;;5130153;27;20176;-70
2023/03/14 06:24:44;;;;;;;3.40;2.13;;;9.20;96.00;;;;;;5129425;28;20183;-70
2023/03/14 06:27:12;;;;;;;5.80;3.25;;;9.20;96.20;;;;;;5130091;28;20192;-70
2023/03/14 06:29:39;;;;;;;4.35;2.80;;;9.20;96.80;;;;;;5116856;28;20654;-70
2023/03/14 06:32:06;;;;;;;4.15;2.58;;;9.30;96.50;;;;;;5113168;28;20506;-70
2023/03/14 06:34:34;;;;;;;6.05;4.03;;;9.30;96.10;;;;;;5112572;28;20670;-70
2023/03/14 06:37:01;;;;;;;6.45;4.00;;;9.30;96.20;;;;;;5112123;28;20207;-70
2023/03/14 06:39:28;;;;;;;4.68;2.90;;;9.30;96.50;;;;;;5112321;28;20275;-70
2023/03/14 06:41:56;;;;;;;3.30;2.17;;;9.40;96.60;;;;;;5112176;28;20539;-71
2023/03/14 06:44:23;;;;;;;3.03;1.92;;;9.50;96.60;;;;;;5112328;28;20291;-70
2023/03/14 06:46:50;;;;;;;3.28;2.15;;;9.50;96.30;;;;;;5120546;28;20278;-69
2023/03/14 06:49:17;;;;;;;3.15;1.80;;;9.50;95.90;;;;;;5113166;28;20610;-70
2023/03/14 06:51:44;;;;;;;1.77;0.95;;;9.60;95.80;;;;;;5119271;28;20283;-71
2023/03/14 06:54:11;;;;;;;2.47;1.10;;;9.50;96.10;;;;;;5118209;28;20271;-70
2023/03/14 06:56:40;;;;;;;2.13;1.30;;;9.50;96.20;;;;;;5119967;28;20180;-71
2023/03/14 06:59:08;;;;;;;2.28;1.20;;;9.50;96.30;;;;;;5120705;28;20511;-69
2023/03/14 07:01:36;;;;;;;2.10;1.38;;;9.50;96.60;;;;;;5113408;28;20354;-69
2023/03/14 07:04:03;;;;;;;3.35;1.70;;;9.50;96.80;;;;;;5130537;28;20207;-69
2023/03/14 07:06:29;;;;;;;3.30;1.70;;;9.50;96.90;;;;;;5122845;28;20640;-69
2023/03/14 07:08:57;;;;;;;3.00;1.45;;;9.50;97.00;;;;;;5111869;28;20283;-69
2023/03/14 07:11:24;;;;;;;2.72;1.38;;;9.50;97.10;;;;;;5123225;28;20279;-70
2023/03/14 07:13:51;;;;;;;2.35;1.40;;;9.50;97.10;;;;;;5127571;28;20215;-70
2023/03/14 07:16:19;;;;;;;2.80;1.50;;;9.50;97.20;;;;;;5116390;28;20275;-70
2023/03/14 07:18:47;;;;;;;2.38;1.25;;;9.60;97.10;;;;;;5114711;28;20695;-71
2023/03/14 07:21:14;;;;;;;3.00;1.35;;;9.60;97.10;;;;;;5127132;28;20211;-71
2023/03/14 07:23:41;;;;;;;3.33;1.50;;;9.60;97.20;;;;;;5113524;28;20287;-70
2023/03/14 07:26:08;;;;;;;3.35;1.48;;;9.60;97.10;;;;;;5114454;28;20191;-70
2023/03/14 07:28:35;;;;;;;3.67;1.60;;;9.60;97.20;;;;;;5112835;28;20275;-70
2023/03/14 07:31:02;;;;;;;6.38;3.00;;;9.60;97.30;;;;;;5117052;28;20219;-70
2023/03/14 07:33:30;;;;;;;3.00;2.10;;;9.70;97.20;;;;;;5111684;28;20256;-70
2023/03/14 07:35:57;;;;;;;2.80;1.58;;;9.80;96.90;;;;;;5116159;28;20681;-70
2023/03/14 07:38:24;;;;;;;5.75;1.92;;;9.90;96.40;;;;;;5123318;27;20198;-72
2023/03/14 07:40:58;;;;;;;3.70;2.10;;;10.00;95.40;;;;;;5122029;27;20218;-71
2023/03/14 07:43:25;;;;;;;4.28;1.80;;;10.00;95.70;;;;;;5134213;27;20180;-80
2023/03/14 07:45:52;;;;;;;2.63;1.52;;;10.00;95.60;;;;;;5135367;27;20191;-70
2023/03/14 07:48:19;;;;;;;3.45;1.10;;;10.10;95.60;;;;;;5135249;27;20249;-70
2023/03/14 07:50:50;;;;;;;1.73;0.80;;;10.20;95.20;;;;;;5135925;27;20230;-70
2023/03/14 07:53:18;;;;;;;3.75;1.92;;;10.20;95.10;;;;;;5136164;27;20195;-70
2023/03/14 07:55:45;;;;;;;2.05;1.00;;;10.20;94.90;;;;;;5136195;27;20227;-70
2023/03/14 07:58:12;;;;;;;2.00;0.90;;;10.20;95.20;;;;;;5136433;27;20278;-70
2023/03/14 08:00:39;;;;;;;2.05;1.00;;;10.20;95.20;;;;;;5135872;27;20290;-69
2023/03/14 08:03:06;;;;;;;3.30;1.20;;;10.30;95.10;;;;;;5134141;27;20192;-70
2023/03/14 08:05:36;;;;;;;2.42;1.00;;;10.20;95.10;;;;;;5136348;27;20203;-69
2023/03/14 08:08:05;;;;;;;3.92;1.25;;;10.30;95.10;;;;;;5136222;27;20219;-70
2023/03/14 08:10:32;;;;;;;2.72;1.48;;;10.20;95.30;;;;;;5133471;27;20236;-70
2023/03/14 08:13:01;;;;;;;3.13;1.70;;;10.20;95.30;;;;;;5136151;27;20236;-70
2023/03/14 08:15:30;;;;;;;2.42;1.33;;;10.30;95.30;;;;;;5136084;27;20271;-70
2023/03/14 08:17:57;;;;;;;4.72;1.60;;;10.20;94.80;;;;;;5135925;27;20214;-70
2023/03/14 08:20:27;;;;;;;4.80;2.03;;;10.20;95.00;;;;;;5135605;27;20561;-69
2023/03/14 08:22:57;;;;;;;3.85;2.30;;;10.20;94.80;;;;;;5135940;27;20282;-70
2023/03/14 08:25:26;;;;;;;6.75;3.83;;;10.30;94.60;;;;;;5135938;27;20183;-70
2023/03/14 08:27:54;;;;;;;4.50;3.25;;;10.30;94.50;;;;;;5135871;27;20555;-70
2023/03/14 08:30:25;;;;;;;3.63;2.40;;;10.30;94.90;;;;;;5135406;27;20188;-70
2023/03/14 08:32:52;;;;;;;2.90;1.70;;;10.30;95.00;;;;;;5135790;27;20303;-70
2023/03/14 08:35:19;;;;;;;2.80;1.70;;;10.30;94.90;;;;;;5135621;27;20227;-70
2023/03/14 08:37:46;;;;;;;2.72;1.90;;;10.30;94.80;;;;;;5135320;27;20199;-70
2023/03/14 08:40:15;;;;;;;3.00;1.65;;;10.40;94.70;;;;;;5135645;27;20188;-70
2023/03/14 08:42:43;;;;;;;2.35;1.33;;;10.40;94.40;;;;;;5134858;27;20251;-70
2023/03/14 08:45:14;;;;;;;3.28;1.15;;;10.50;94.10;;;;;;5135045;27;20238;-71
2023/03/14 08:47:40;;;;;;;2.95;1.13;;;10.40;94.20;;;;;;5135800;27;20601;-70
2023/03/14 08:50:09;;;;;;;4.05;1.48;;;10.40;94.40;;;;;;5135073;27;20275;-69
2023/03/14 08:52:37;;;;;;;3.97;1.40;;;10.50;93.70;;;;;;5135019;27;20652;-70
2023/03/14 08:55:05;;;;;;;2.35;1.08;;;10.40;94.00;;;;;;5135480;27;20282;-70
2023/03/14 08:57:32;;;;;;;3.00;0.80;;;10.40;93.90;;;;;;5135264;27;20279;-70
2023/03/14 09:00:00;;;;;;;1.90;0.70;;;10.40;94.00;;;;;;5135121;27;20195;-70
2023/03/14 09:02:27;;;;;;;1.90;0.80;;;10.40;94.20;;;;;;5135084;27;20306;-70
2023/03/14 09:04:54;;;;;;;2.22;0.90;;;10.40;94.40;;;;;;5135044;27;20188;-70
2023/03/14 09:07:22;;;;;;;3.53;1.50;;;10.40;94.40;;;;;;5134729;27;20198;-70
2023/03/14 09:09:49;;;;;;;3.13;1.85;;;10.50;94.40;;;;;;5134979;27;20188;-69
2023/03/14 09:12:16;;;;;;;3.00;1.67;;;10.50;94.70;;;;;;5134884;27;20184;-70
2023/03/14 09:14:42;;;;;;;2.67;1.48;;;10.60;94.90;;;;;;5134912;27;20289;-77
2023/03/14 09:17:11;;;;;;;1.92;0.80;;;10.60;94.50;;;;;;5134718;27;20274;-70
2023/03/14 09:19:38;;;;;;;1.83;1.00;;;10.70;93.80;;;;;;5134526;27;20687;-70
2023/03/14 09:22:05;;;;;;;2.58;0.90;;;10.70;93.60;;;;;;5134626;27;20222;-69
2023/03/14 09:24:32;;;;;;;2.75;1.33;;;10.80;92.90;;;;;;5134421;27;20659;-70
2023/03/14 09:26:59;;;;;;;2.20;1.00;;;10.80;92.90;;;;;;5134350;27;20630;-70
2023/03/14 09:29:26;;;;;;;2.22;0.90;;;10.80;92.80;;;;;;5134403;27;20198;-69
2023/03/14 09:31:53;;;;;;;1.85;0.90;;;10.90;92.70;;;;;;5134392;27;20219;-70
2023/03/14 09:34:21;;;;;;;1.80;0.75;;;11.00;91.90;;;;;;5132237;27;20598;-70
2023/03/14 09:36:48;;;;;;;2.10;0.65;;;11.00;91.60;;;;;;5134145;27;20183;-70
2023/03/14 09:39:15;;;;;;;2.10;0.90;;;11.00;91.30;;;;;;5134322;27;20279;-70
2023/03/14 09:41:49;;;;;;;2.58;1.25;;;11.20;91.10;;;;;;5134216;27;20235;-70
2023/03/14 09:44:21;;;;;;;2.40;1.00;;;11.30;90.90;;;;;;5134010;27;20226;-70
2023/03/14 09:46:53;;;;;;;2.50;1.10;;;11.60;90.50;;;;;;5134015;27;20227;-71
2023/03/14 09:49:25;;;;;;;1.80;0.80;;;12.00;90.20;;;;;;5133812;27;20227;-70
2023/03/14 09:51:55;;;;;;;1.70;0.77;;;12.50;88.40;;;;;;5134318;27;20283;-70
2023/03/14 09:54:32;;;;;;;1.73;0.80;;;13.00;87.50;;;;;;5133461;27;20379;-70
2023/03/14 09:56:59;;;;;;;2.00;0.90;;;13.70;83.70;;;;;;5133930;27;20828;-72
2023/03/14 09:59:28;;;;;;;2.00;0.87;;;14.10;79.80;;;;;;5133609;27;20575;-70
2023/03/14 10:01:56;;;;;;;3.40;1.83;;;14.70;77.60;;;;;;5132976;27;21016;-70
2023/03/14 10:04:24;;;;;;;2.30;1.20;;;15.70;73.80;;;;;;5133228;27;20494;-71
2023/03/14 10:06:51;;;;;;;1.80;0.63;;;16.70;68.80;;;;;;5133895;27;20529;-71
2023/03/14 10:09:24;;;;;;;1.87;1.00;;;17.80;63.00;;;;;;5133761;27;20434;-71
2023/03/14 10:11:54;;;;;;;1.90;1.00;;;19.20;57.50;;;;;;5133883;27;20445;-71
2023/03/14 10:14:30;;;;;;;2.90;1.43;;;20.30;52.70;;;;;;5133825;27;20442;-71
2023/03/14 10:17:08;;;;;;;2.57;1.47;;;20.60;46.70;;;;;;5133793;27;20468;-71
2023/03/14 10:19:36;;;;;;;1.90;0.70;;;22.20;49.40;;;;;;5133874;27;20448;-71
2023/03/14 10:22:05;;;;;;;1.70;0.70;;;25.70;39.70;;;;;;5133716;27;20488;-71
2023/03/14 10:24:34;;;;;;;5.33;0.80;;;25.90;34.70;;;;;;5133732;27;20540;-72
2023/03/14 10:27:02;;;;;;;2.00;0.90;;;26.30;36.00;;;;;;5133675;28;20445;-71
2023/03/14 10:29:30;;;;;;;2.30;0.80;;;27.70;32.60;;;;;;5133750;28;20487;-72
2023/03/14 10:32:01;;;;;;;3.57;3.07;;;29.40;31.40;;;;;;5133554;28;20923;-72
2023/03/14 10:34:30;;;;;;;5.23;2.50;;;32.40;28.00;;;;;;5133237;28;20417;-72
2023/03/14 10:37:04;;;;;;;1.80;0.70;;;34.40;24.00;;;;;;5133694;28;20460;-72
2023/03/14 10:39:45;;;;;;;3.07;0.80;;;35.00;22.20;;;;;;5133558;28;20456;-72
2023/03/14 10:42:19;;;;;;;3.53;1.00;;;35.70;22.40;;;;;;5132769;28;20567;-72
2023/03/14 10:44:50;;;;;;;2.60;1.03;;;36.70;19.90;;;;;;5133685;28;20461;-72
2023/03/14 10:47:23;;;;;;;2.37;0.80;;;37.70;18.30;;;;;;5133661;28;20445;-72
2023/03/14 10:49:50;;;;;;;3.77;2.67;;;38.10;18.00;;;;;;5133071;28;20505;-72
2023/03/14 10:52:23;;;;;;;1.83;0.87;;;36.80;17.40;;;;;;5133351;28;20982;-73
2023/03/14 10:54:55;;;;;;;2.90;1.00;;;34.30;17.50;;;;;;5133641;28;20449;-72
2023/03/14 10:57:22;;;;;;;1.77;0.60;;;31.80;20.60;;;;;;5133497;28;20907;-72
2023/03/14 10:59:49;;;;;;;3.20;1.80;;;30.20;21.10;;;;;;5132991;28;20436;-76
2023/03/14 11:02:44;;;;;;;2.90;0.70;;;28.60;22.90;;;;;;5133464;28;20564;-72
2023/03/14 11:05:26;;;;;;;5.40;2.37;;;27.20;23.10;;;;;;5133224;28;20434;-72
2023/03/14 11:08:02;;;;;;;2.10;0.80;;;25.90;26.00;;;;;;5133401;28;20472;-72
2023/03/14 11:10:37;;;;;;;1.60;0.50;;;24.90;25.40;;;;;;5133239;28;20810;-73
2023/03/14 11:13:15;;;;;;;1.60;0.50;;;24.10;24.60;;;;;;5136120;27;20472;-71
2023/03/14 11:15:52;;;;;;;2.27;0.57;;;23.50;25.00;;;;;;5137135;27;20523;-71
2023/03/14 11:18:54;;;;;;;1.60;0.50;;;24.20;25.40;;;;;;5137227;27;20520;-72
2023/03/14 11:21:37;;;;;;;2.20;0.77;;;25.90;24.80;;;;;;5136938;27;20431;-71
2023/03/14 11:24:32;;;;;;;2.80;1.50;;;27.00;23.20;;;;;;5136991;27;20536;-72
2023/03/14 11:27:05;;;;;;;2.30;0.80;;;27.50;23.20;;;;;;5093963;27;20441;-72
2023/03/14 11:29:39;;;;;;;1.50;0.53;;;27.50;22.20;;;;;;5136446;27;20478;-71
2023/03/14 11:32:13;;;;;;;1.57;0.50;;;26.60;22.50;;;;;;5136840;27;20471;-72
2023/03/14 11:34:47;;;;;;;2.10;0.87;;;25.50;23.70;;;;;;5137167;27;20494;-71
2023/03/14 11:37:21;;;;;;;1.73;0.67;;;24.50;23.70;;;;;;5136325;27;20433;-72
2023/03/14 11:40:00;;;;;;;2.17;0.97;;;23.60;24.30;;;;;;5136220;27;20477;-71
2023/03/14 11:42:29;;;;;;;1.60;0.50;;;22.80;25.80;;;;;;5136507;27;20488;-71
2023/03/14 11:44:56;;;;;;;1.60;0.50;;;22.20;26.60;;;;;;5136577;27;20437;-71
2023/03/14 11:47:28;;;;;;;1.70;0.70;;;21.70;28.00;;;;;;5136519;27;20444;-71
2023/03/14 11:50:02;;;;;;;1.60;0.60;;;21.20;27.60;;;;;;5136619;27;20445;-71
2023/03/14 11:52:35;;;;;;;1.50;0.50;;;20.80;28.40;;;;;;5136359;27;20508;-73
2023/03/14 11:55:11;;;;;;;1.63;0.73;;;20.30;28.90;;;;;;5136591;27;20858;-71
2023/03/14 11:57:40;;;;;;;1.90;0.80;;;19.80;30.00;;;;;;5136392;27;20536;-71
2023/03/14 12:00:17;;;;;;;1.77;0.67;;;19.40;30.20;;;;;;5136143;27;20554;-70
2023/03/14 12:02:52;;;;;;;1.70;0.70;;;19.20;30.40;;;;;;5136408;27;20523;-71
2023/03/14 12:05:38;;;;;;;2.27;0.60;;;19.10;30.90;;;;;;5136220;27;20715;-71
2023/03/14 12:08:32;;;;;;;2.83;0.70;;;19.20;32.50;;;;;;5136175;27;20445;-70
2023/03/14 12:11:05;;;;;;;1.80;0.70;;;19.30;32.50;;;;;;5135509;27;20425;-71
2023/03/14 12:13:37;;;;;;;5.70;1.03;;;19.20;31.90;;;;;;5130283;27;21004;-71
2023/03/14 12:16:07;;;;;;;1.77;0.80;;;18.80;32.70;;;;;;5135485;27;20441;-70
2023/03/14 12:18:38;;;;;;;1.50;0.60;;;18.20;32.90;;;;;;5134555;27;20806;-70
2023/03/14 12:21:07;;;;;;;6.00;1.60;;;17.80;34.00;;;;;;5136193;27;20443;-70
2023/03/14 12:23:40;;;;;;;1.80;0.60;;;17.50;35.20;;;;;;5133218;27;20504;-71
2023/03/14 12:26:16;;;;;;;1.90;0.83;;;17.30;36.50;;;;;;5129908;27;21012;-74
2023/03/14 12:28:45;;;;;;;1.70;0.70;;;17.20;36.90;;;;;;5135001;27;20468;-73
2023/03/14 12:31:37;;;;;;;1.80;0.90;;;17.30;37.70;;;;;;5125669;27;20450;-71
2023/03/14 12:34:25;;;;;;;1.70;0.70;;;17.20;37.80;;;;;;5111098;27;20528;-71
2023/03/14 12:37:14;;;;;;;2.10;0.80;;;16.90;38.00;;;;;;5128151;27;20441;-72
2023/03/14 12:39:48;;;;;;;1.60;0.63;;;16.60;38.50;;;;;;5133701;27;20907;-71
2023/03/14 12:42:22;;;;;;;1.80;0.80;;;16.30;39.30;;;;;;5131684;27;20476;-70
2023/03/14 12:44:50;;;;;;;1.70;0.70;;;16.10;39.50;;;;;;5133334;27;20501;-71
2023/03/14 12:47:50;;;;;;;2.57;0.73;;;16.00;41.10;;;;;;5132377;27;20457;-71
2023/03/14 12:50:29;;;;;;;2.90;0.90;;;15.80;40.90;;;;;;5134761;27;20437;-71
2023/03/14 12:53:30;;;;;;;2.10;1.00;;;15.70;41.70;;;;;;5133821;27;20500;-70
2023/03/14 12:56:06;;;;;;;1.70;0.80;;;15.60;42.70;;;;;;5134952;27;20488;-70
2023/03/14 12:58:38;;;;;;;1.80;0.90;;;15.50;42.30;;;;;;5135182;27;20436;-70
2023/03/14 13:01:11;;;;;;;5.53;1.17;;;15.60;42.20;;;;;;5134996;27;20556;-70
2023/03/14 13:03:43;;;;;;;3.03;0.90;;;15.90;41.70;;;;;;5135148;27;20515;-71
2023/03/14 13:06:12;;;;;;;3.00;0.70;;;16.00;41.50;;;;;;5135244;27;20516;-71